PAAQ METAR and TAF weather

Enter ICAO airport designator
Station Type Date Time Source
PAAQ METAR 2021/09/24 05:53 UTC NOAA

PAAQ 240553Z AUTO 16005KT 10SM -RA OVC003 03/02 A2901 RMK AO2 RAB23E29B44 SLP826 P0000 60000 T00280017 10072 20028 56011 TSNO


Station Type Date Time Source
PAAQ Decoded METAR 2021/09/24 05:53 UTC NOAA

PALMER MUNICIPAL AIRPORT, AK, United States (PAAQ) 61-36N 149-06W
Sep 24, 2021 - 01:53 AM EDT / 2021.09.24 0553 UTC
Wind: from the SSE (160 degrees) at 6 MPH (5 KT):0
Visibility: 10 mile(s):0
Sky conditions: overcast
Weather: light rain
Precipitation last hour: A trace
Temperature: 37.0 F (2.8 C)
Dew Point: 35.1 F (1.7 C)
Relative Humidity: 92%
Pressure (altimeter): 29.01 in. Hg (982 hPa)
Pressure tendency: 0.03 inches (1.1 hPa) lower than three hours ago
ob: PAAQ 240553Z AUTO 16005KT 10SM -RA OVC003 03/02 A2901 RMK AO2 RAB23E29B44 SLP826 P0000 60000 T00280017 10072 20028 56011 TSNO
cycle: 6

Station Type Date Time Source
PAAQ TAF 2021/09/24 06:24 UTC NOAA

TAF PAAQ 240523Z 2406/2506 VRB05KT P6SM -RA SCT030 OVC050
FM241200 02006KT 5SM -RASN BR BKN030
FM241400 VRB05KT 3SM -SN BR SCT015 OVC025
FM241800 VRB05KT P6SM -RASN SCT015 OVC025

Example: see airport list